createdAt,value
2018-06-03T00:00:29.414Z,14.57
2018-06-03T00:02:57.240Z,14.51
2018-06-03T00:05:25.057Z,14.56
2018-06-03T00:07:52.960Z,14.46
2018-06-03T00:10:20.779Z,14.49
2018-06-03T00:12:48.566Z,14.44
2018-06-03T00:15:16.408Z,14.35
2018-06-03T00:17:44.213Z,14.31
2018-06-03T00:20:12.198Z,14.31
2018-06-03T00:22:40.023Z,14.24
2018-06-03T00:25:07.893Z,14.20
2018-06-03T00:27:35.707Z,14.29
2018-06-03T00:30:03.766Z,14.09
2018-06-03T00:32:31.582Z,14.02
2018-06-03T00:34:59.573Z,14.03
2018-06-03T00:37:27.602Z,14.06
2018-06-03T00:39:55.402Z,14.17
2018-06-03T00:42:23.352Z,14.16
2018-06-03T00:44:51.191Z,14.17
2018-06-03T00:47:19.027Z,14.15
2018-06-03T00:49:46.848Z,14.29
2018-06-03T00:52:14.754Z,14.30
2018-06-03T00:54:42.571Z,14.44
2018-06-03T00:57:10.805Z,14.27
2018-06-03T00:59:38.982Z,14.37
2018-06-03T01:02:07.025Z,14.28
2018-06-03T01:04:34.835Z,14.24
2018-06-03T01:07:02.690Z,14.35
2018-06-03T01:09:30.520Z,14.34
2018-06-03T01:11:58.328Z,14.25
2018-06-03T01:14:26.228Z,14.18
2018-06-03T01:16:54.020Z,14.22
2018-06-03T01:19:21.912Z,14.26
2018-06-03T01:21:49.763Z,14.18
2018-06-03T01:24:17.724Z,13.97
2018-06-03T01:26:45.526Z,14.02
2018-06-03T01:29:13.503Z,13.72
2018-06-03T01:31:41.324Z,13.53
2018-06-03T01:34:09.163Z,13.43
2018-06-03T01:36:38.902Z,13.33
2018-06-03T01:39:07.112Z,13.46
2018-06-03T01:41:35.048Z,13.24
2018-06-03T01:44:02.910Z,12.87
2018-06-03T01:46:30.725Z,12.61
2018-06-03T01:48:58.568Z,12.80
2018-06-03T01:51:26.551Z,12.57
2018-06-03T01:53:54.364Z,12.69
2018-06-03T01:56:22.170Z,12.54
2018-06-03T01:58:50.072Z,12.87
2018-06-03T02:01:17.879Z,13.06
2018-06-03T02:03:45.824Z,13.21
2018-06-03T02:06:13.665Z,13.26
2018-06-03T02:08:41.476Z,13.28
2018-06-03T02:11:09.420Z,13.32
2018-06-03T02:13:37.412Z,13.16
2018-06-03T02:16:05.257Z,13.02
2018-06-03T02:18:33.061Z,12.94
2018-06-03T02:21:00.984Z,12.91
2018-06-03T02:23:28.791Z,12.93
2018-06-03T02:25:56.800Z,13.04
2018-06-03T02:28:24.646Z,13.14
2018-06-03T02:30:52.603Z,13.38
2018-06-03T02:33:20.421Z,13.40
2018-06-03T02:35:48.280Z,13.32
2018-06-03T02:38:16.220Z,13.21
2018-06-03T02:40:44.066Z,13.30
2018-06-03T02:43:12.084Z,13.08
2018-06-03T02:45:39.888Z,13.18
2018-06-03T02:48:07.845Z,13.19
2018-06-03T02:50:35.707Z,13.23
2018-06-03T02:53:03.522Z,13.14
2018-06-03T02:55:31.340Z,12.99
2018-06-03T02:57:59.189Z,13.03
2018-06-03T03:00:27.021Z,12.85
2018-06-03T03:02:54.839Z,12.72
2018-06-03T03:05:22.869Z,12.48
2018-06-03T03:07:50.708Z,12.38
2018-06-03T03:10:18.673Z,12.44
2018-06-03T03:12:46.523Z,12.48
2018-06-03T03:15:14.416Z,12.68
2018-06-03T03:17:42.294Z,12.74
2018-06-03T03:20:10.153Z,12.80
2018-06-03T03:22:37.956Z,12.88
2018-06-03T03:25:05.831Z,12.94
2018-06-03T03:27:33.800Z,12.99
2018-06-03T03:30:01.614Z,12.98
2018-06-03T03:32:29.427Z,12.84
2018-06-03T03:34:57.268Z,12.85
2018-06-03T03:37:25.060Z,12.85
2018-06-03T03:39:53.118Z,12.86
2018-06-03T03:42:22.103Z,13.03
2018-06-03T03:44:49.928Z,13.12
2018-06-03T03:47:17.744Z,13.16
2018-06-03T03:49:45.822Z,13.17
2018-06-03T03:52:13.629Z,13.23
2018-06-03T03:54:41.461Z,13.17
2018-06-03T03:57:09.333Z,13.40
2018-06-03T03:59:37.167Z,13.46
2018-06-03T04:02:04.980Z,13.40
2018-06-03T04:04:32.846Z,13.45
2018-06-03T04:07:00.671Z,13.34
2018-06-03T04:09:28.517Z,13.43
2018-06-03T04:11:56.446Z,13.21
2018-06-03T04:14:24.248Z,13.20
2018-06-03T04:16:52.171Z,13.38
2018-06-03T04:19:20.015Z,13.09
2018-06-03T04:21:47.815Z,13.13
2018-06-03T04:24:15.620Z,13.26
2018-06-03T04:26:43.479Z,13.43
2018-06-03T04:29:11.270Z,13.55
2018-06-03T04:31:39.209Z,13.63
2018-06-03T04:34:07.123Z,13.70
2018-06-03T04:36:34.952Z,13.70
2018-06-03T04:39:03.173Z,13.71
2018-06-03T04:41:31.253Z,13.54
2018-06-03T04:43:59.064Z,13.61
2018-06-03T04:46:26.886Z,13.65
2018-06-03T04:48:54.729Z,13.35
2018-06-03T04:51:22.811Z,13.46
2018-06-03T04:53:50.612Z,13.34
2018-06-03T04:56:18.543Z,12.85
2018-06-03T04:58:46.815Z,13.02
2018-06-03T05:01:14.768Z,13.22
2018-06-03T05:03:42.769Z,13.02
2018-06-03T05:06:10.630Z,13.12
2018-06-03T05:08:38.611Z,13.01
2018-06-03T05:11:06.468Z,12.98
2018-06-03T05:13:34.308Z,13.12
2018-06-03T05:16:02.126Z,13.29
2018-06-03T05:18:30.082Z,13.45
2018-06-03T05:20:57.904Z,13.40
2018-06-03T05:23:25.779Z,13.21
2018-06-03T05:25:53.625Z,13.36
2018-06-03T05:28:21.429Z,13.54
2018-06-03T05:30:49.216Z,13.77
2018-06-03T05:33:17.092Z,13.87
2018-06-03T05:35:45.052Z,13.84
2018-06-03T05:38:13.026Z,14.30
2018-06-03T05:40:40.980Z,14.39
2018-06-03T05:43:09.125Z,14.63
2018-06-03T05:45:36.958Z,14.78
2018-06-03T05:48:04.982Z,14.82
2018-06-03T05:50:32.839Z,15.11
2018-06-03T05:53:00.680Z,14.92
2018-06-03T05:55:28.537Z,14.98
2018-06-03T05:57:56.499Z,15.17
2018-06-03T06:00:24.329Z,15.37
2018-06-03T06:02:52.396Z,15.37
2018-06-03T06:05:20.389Z,15.60
2018-06-03T06:07:48.263Z,15.50
2018-06-03T06:10:16.138Z,15.68
2018-06-03T06:12:44.460Z,16.00
2018-06-03T06:15:12.454Z,16.30
2018-06-03T06:17:40.321Z,16.47
2018-06-03T06:20:08.531Z,16.55
2018-06-03T06:22:36.397Z,16.30
2018-06-03T06:25:04.768Z,15.61
2018-06-03T06:27:32.923Z,16.01
2018-06-03T06:30:00.953Z,16.95
2018-06-03T06:32:28.802Z,16.59
2018-06-03T06:34:56.768Z,16.18
2018-06-03T06:37:25.127Z,16.16
2018-06-03T06:40:04.610Z,16.92
2018-06-03T06:42:36.566Z,17.19
2018-06-03T06:45:07.020Z,17.49
2018-06-03T06:47:37.207Z,17.95
2018-06-03T06:50:06.035Z,17.25
2018-06-03T06:52:34.054Z,17.31
2018-06-03T06:55:02.934Z,17.66
2018-06-03T06:57:31.114Z,17.40
2018-06-03T06:59:59.003Z,17.09
2018-06-03T07:02:26.963Z,17.03
2018-06-03T07:04:54.915Z,16.89
2018-06-03T07:07:28.973Z,16.82
2018-06-03T07:09:56.808Z,16.51
2018-06-03T07:12:24.684Z,16.96
2018-06-03T07:14:52.549Z,17.49
2018-06-03T07:17:20.376Z,17.74
2018-06-03T07:19:48.267Z,18.25
2018-06-03T07:22:16.142Z,18.69
2018-06-03T07:24:43.976Z,18.88
2018-06-03T07:27:11.794Z,18.86
2018-06-03T07:29:39.710Z,18.57
2018-06-03T07:32:07.691Z,18.74
2018-06-03T07:34:35.667Z,18.85
2018-06-03T07:37:03.629Z,19.02
2018-06-03T07:39:31.480Z,18.97
2018-06-03T07:41:59.301Z,18.79
2018-06-03T07:44:27.181Z,19.14
2018-06-03T07:46:55.192Z,19.94
2018-06-03T07:49:23.117Z,20.59
2018-06-03T07:51:51.068Z,21.10
2018-06-03T07:54:18.908Z,20.80
2018-06-03T07:56:46.727Z,20.98
2018-06-03T07:59:14.630Z,21.17
2018-06-03T08:01:42.895Z,21.04
2018-06-03T08:04:10.708Z,21.59
2018-06-03T08:06:38.575Z,21.12
2018-06-03T08:09:07.179Z,21.46
2018-06-03T08:11:34.987Z,22.03
2018-06-03T08:14:02.974Z,22.51
2018-06-03T08:16:30.822Z,22.53
2018-06-03T08:18:58.652Z,22.67
2018-06-03T08:21:26.705Z,22.93
2018-06-03T08:23:54.528Z,23.33
2018-06-03T08:26:22.336Z,23.33
2018-06-03T08:28:50.229Z,23.56
2018-06-03T08:31:18.048Z,24.02
2018-06-03T08:33:45.842Z,23.94
2018-06-03T08:36:13.756Z,24.16
2018-06-03T08:38:42.160Z,24.78
2018-06-03T08:41:09.960Z,24.18
2018-06-03T08:43:37.787Z,24.19
2018-06-03T08:46:05.587Z,24.62
2018-06-03T08:48:33.874Z,24.69
2018-06-03T08:51:01.719Z,24.50
2018-06-03T08:53:29.560Z,24.47
2018-06-03T08:55:57.385Z,24.96
2018-06-03T08:58:25.330Z,24.96
2018-06-03T09:00:53.134Z,24.81
2018-06-03T09:03:20.943Z,25.41
2018-06-03T09:05:48.796Z,25.99
2018-06-03T09:08:16.604Z,26.20
2018-06-03T09:10:44.440Z,26.15
2018-06-03T09:13:12.311Z,25.59
2018-06-03T09:15:40.119Z,25.87
2018-06-03T09:18:07.923Z,25.73
2018-06-03T09:20:35.857Z,25.30
2018-06-03T09:23:03.739Z,25.36
2018-06-03T09:25:31.565Z,25.77
2018-06-03T09:27:59.419Z,25.73
2018-06-03T09:30:27.781Z,26.19
2018-06-03T09:32:56.630Z,25.57
2018-06-03T09:35:24.512Z,26.12
2018-06-03T09:37:52.362Z,26.19
2018-06-03T09:40:20.205Z,26.01
2018-06-03T09:42:53.383Z,26.16
2018-06-03T09:45:21.216Z,26.61
2018-06-03T09:47:49.077Z,26.57
2018-06-03T09:50:17.044Z,27.16
2018-06-03T09:52:44.875Z,27.33
2018-06-03T09:55:12.697Z,26.70
2018-06-03T09:57:40.545Z,26.24
2018-06-03T10:00:08.456Z,26.71
2018-06-03T10:02:36.273Z,27.09
2018-06-03T10:05:04.247Z,27.08
2018-06-03T10:07:32.084Z,27.28
2018-06-03T10:09:59.891Z,27.53
2018-06-03T10:12:27.735Z,27.77
2018-06-03T10:14:55.527Z,27.64
2018-06-03T10:17:23.329Z,28.19
2018-06-03T10:19:51.182Z,28.11
2018-06-03T10:22:19.007Z,28.14
2018-06-03T10:24:46.804Z,27.64
2018-06-03T10:27:14.692Z,27.08
2018-06-03T10:29:42.520Z,27.12
2018-06-03T10:32:10.316Z,27.62
2018-06-03T10:34:38.175Z,28.26
2018-06-03T10:37:06.108Z,28.38
2018-06-03T10:39:34.240Z,27.92
2018-06-03T10:42:02.080Z,28.47
2018-06-03T10:44:30.007Z,28.61
2018-06-03T10:46:58.149Z,28.87
2018-06-03T10:49:27.021Z,29.57
2018-06-03T10:51:54.994Z,29.94
2018-06-03T10:54:22.942Z,29.57
2018-06-03T10:56:50.811Z,29.08
2018-06-03T10:59:18.614Z,29.92
2018-06-03T11:01:46.419Z,30.06
2018-06-03T11:04:14.419Z,28.85
2018-06-03T11:06:42.358Z,28.77
2018-06-03T11:09:10.479Z,28.96
2018-06-03T11:11:38.601Z,28.77
2018-06-03T11:14:06.408Z,28.60
2018-06-03T11:16:34.241Z,28.60
2018-06-03T11:19:02.098Z,28.95
2018-06-03T11:21:29.994Z,29.20
2018-06-03T11:23:57.996Z,29.10
2018-06-03T11:26:25.830Z,29.13
2018-06-03T11:28:53.807Z,29.01
2018-06-03T11:31:21.621Z,28.24
2018-06-03T11:33:49.594Z,27.86
2018-06-03T11:36:17.407Z,27.31
2018-06-03T11:38:45.371Z,26.58
2018-06-03T11:41:13.219Z,25.69
2018-06-03T11:43:41.111Z,25.11
2018-06-03T11:46:09.027Z,24.98
2018-06-03T11:48:36.883Z,24.61
2018-06-03T11:51:04.731Z,24.14
2018-06-03T11:53:36.287Z,24.02
2018-06-03T11:56:04.413Z,24.04
2018-06-03T11:58:43.214Z,23.85
2018-06-03T12:01:11.101Z,23.71
2018-06-03T12:03:38.888Z,23.76
2018-06-03T12:06:06.780Z,23.86
2018-06-03T12:08:34.628Z,23.95
2018-06-03T12:11:02.451Z,23.99
2018-06-03T12:13:30.236Z,23.69
2018-06-03T12:15:58.145Z,22.53
2018-06-03T12:18:25.941Z,22.02
2018-06-03T12:20:53.787Z,22.12
2018-06-03T12:23:21.633Z,22.09
2018-06-03T12:27:13.849Z,22.11
2018-06-03T12:29:41.681Z,22.03
2018-06-03T12:32:09.531Z,22.08
2018-06-03T12:34:37.325Z,21.88
2018-06-03T12:37:05.645Z,21.85
2018-06-03T12:39:33.448Z,21.49
2018-06-03T12:42:01.271Z,21.57
2018-06-03T12:44:29.141Z,22.07
2018-06-03T12:46:56.985Z,22.49
2018-06-03T12:49:24.875Z,23.00
2018-06-03T12:51:54.012Z,23.67
2018-06-03T12:54:22.078Z,23.95
2018-06-03T12:56:49.940Z,24.47
2018-06-03T12:59:17.888Z,25.05
2018-06-03T13:01:45.724Z,25.50
2018-06-03T13:04:13.554Z,26.42
2018-06-03T13:06:41.564Z,26.88
2018-06-03T13:09:09.459Z,27.64
2018-06-03T13:11:37.284Z,28.30
2018-06-03T13:14:05.141Z,28.60
2018-06-03T13:16:33.146Z,28.85
2018-06-03T13:19:00.966Z,29.03
2018-06-03T13:21:28.893Z,28.70
2018-06-03T13:23:56.721Z,28.60
2018-06-03T13:26:24.561Z,28.05
2018-06-03T13:28:52.413Z,27.80
2018-06-03T13:31:20.224Z,27.22
2018-06-03T13:33:48.045Z,27.07
2018-06-03T13:36:15.911Z,26.15
2018-06-03T13:38:43.696Z,25.60
2018-06-03T13:41:11.503Z,25.05
2018-06-03T13:43:39.415Z,24.79
2018-06-03T13:46:07.232Z,24.66
2018-06-03T13:48:35.082Z,25.11
2018-06-03T13:51:02.925Z,24.63
2018-06-03T13:53:30.772Z,25.15
2018-06-03T13:55:58.996Z,26.37
2018-06-03T13:58:26.865Z,26.71
2018-06-03T14:00:54.692Z,27.79
2018-06-03T14:03:22.516Z,28.07
2018-06-03T14:05:50.409Z,28.96
2018-06-03T14:08:18.244Z,29.29
2018-06-03T14:10:46.038Z,29.48
2018-06-03T14:13:13.911Z,29.83
2018-06-03T14:15:41.723Z,29.17
2018-06-03T14:18:09.542Z,29.87
2018-06-03T14:20:37.556Z,30.03
2018-06-03T14:23:05.361Z,28.54
2018-06-03T14:25:33.213Z,28.52
2018-06-03T14:28:01.294Z,28.16
2018-06-03T14:30:29.117Z,27.73
2018-06-03T14:32:57.119Z,26.67
2018-06-03T14:35:25.157Z,26.56
2018-06-03T14:37:53.015Z,27.31
2018-06-03T14:40:20.822Z,28.45
2018-06-03T14:42:48.654Z,28.67
2018-06-03T14:45:16.525Z,29.47
2018-06-03T14:47:44.390Z,29.18
2018-06-03T14:50:12.501Z,27.86
2018-06-03T14:52:41.989Z,29.39
2018-06-03T14:55:10.593Z,30.45
2018-06-03T14:57:38.558Z,30.87
2018-06-03T15:05:32.608Z,31.24
2018-06-03T15:08:00.443Z,32.13
2018-06-03T15:10:28.500Z,31.06
2018-06-03T15:12:56.454Z,31.00
2018-06-03T15:15:24.268Z,30.14
2018-06-03T15:17:52.115Z,29.39
2018-06-03T15:20:20.005Z,29.43
2018-06-03T15:22:48.082Z,29.63
2018-06-03T15:25:16.051Z,29.76
2018-06-03T15:27:43.947Z,28.98
2018-06-03T15:30:11.838Z,29.68
2018-06-03T15:32:46.960Z,28.67
2018-06-03T15:35:14.792Z,26.89
2018-06-03T15:37:42.619Z,26.27
2018-06-03T15:40:10.480Z,24.77
2018-06-03T15:42:38.301Z,23.86
2018-06-03T15:45:06.131Z,23.79
2018-06-03T15:47:34.108Z,24.15
2018-06-03T15:50:01.938Z,24.41
2018-06-03T15:52:29.745Z,24.08
2018-06-03T15:54:58.402Z,23.64
2018-06-03T15:57:26.359Z,23.79
2018-06-03T15:59:54.328Z,23.43
2018-06-03T16:02:22.463Z,23.45
2018-06-03T16:04:50.317Z,23.19
2018-06-03T16:07:18.131Z,23.06
2018-06-03T16:09:46.017Z,22.96
2018-06-03T16:12:13.924Z,22.76
2018-06-03T16:16:06.212Z,22.73
2018-06-03T16:18:34.035Z,22.53
2018-06-03T16:21:01.892Z,22.60
2018-06-03T16:23:29.768Z,22.48
2018-06-03T16:25:57.621Z,22.51
2018-06-03T16:28:25.478Z,22.47
2018-06-03T16:30:53.421Z,22.48
2018-06-03T16:33:21.451Z,22.58
2018-06-03T16:35:49.239Z,22.59
2018-06-03T16:38:17.106Z,22.51
2018-06-03T16:40:44.928Z,22.37
2018-06-03T16:43:13.382Z,22.23
2018-06-03T16:45:41.242Z,22.26
2018-06-03T16:48:09.070Z,22.33
2018-06-03T16:50:36.895Z,21.98
2018-06-03T16:53:05.529Z,21.50
2018-06-03T16:55:33.327Z,21.42
2018-06-03T16:58:01.146Z,21.07
2018-06-03T17:00:29.539Z,20.84
2018-06-03T17:02:58.258Z,20.82
2018-06-03T17:05:26.241Z,20.65
2018-06-03T17:07:54.226Z,20.60
2018-06-03T17:10:22.064Z,20.53
2018-06-03T17:12:49.859Z,20.44
2018-06-03T17:15:17.786Z,20.37
2018-06-03T17:17:45.616Z,20.18
2018-06-03T17:20:13.451Z,20.08
2018-06-03T17:22:41.357Z,20.02
2018-06-03T17:25:09.166Z,19.84
2018-06-03T17:27:36.989Z,19.82
2018-06-03T17:30:04.997Z,19.71
2018-06-03T17:32:32.816Z,19.64
2018-06-03T17:35:00.652Z,19.45
2018-06-03T17:37:28.801Z,19.36
2018-06-03T17:39:56.709Z,19.27
2018-06-03T17:42:24.547Z,19.19
2018-06-03T17:44:52.413Z,19.07
2018-06-03T17:47:20.211Z,19.12
2018-06-03T17:49:48.023Z,18.98
2018-06-03T17:52:16.032Z,18.96
2018-06-03T17:54:43.900Z,19.03
2018-06-03T17:57:11.765Z,18.95
2018-06-03T17:59:39.708Z,19.08
2018-06-03T18:02:08.360Z,19.10
2018-06-03T18:04:36.336Z,19.05
2018-06-03T18:07:04.282Z,19.06
2018-06-03T18:09:32.140Z,18.93
2018-06-03T18:11:59.969Z,18.87
2018-06-03T18:14:27.968Z,18.78
2018-06-03T18:16:56.010Z,18.76
2018-06-03T18:19:23.801Z,18.60
2018-06-03T18:21:51.761Z,18.49
2018-06-03T18:24:19.608Z,18.47
2018-06-03T18:26:47.956Z,18.34
2018-06-03T18:29:16.907Z,18.28
2018-06-03T18:31:44.733Z,18.18
2018-06-03T18:34:12.660Z,18.11
2018-06-03T18:36:40.538Z,18.02
2018-06-03T18:39:08.513Z,18.07
2018-06-03T18:41:36.892Z,17.97
2018-06-03T18:44:04.900Z,17.83
2018-06-03T18:46:32.814Z,17.91
2018-06-03T18:49:00.797Z,17.89
2018-06-03T18:51:28.856Z,17.74
2018-06-03T18:53:56.738Z,17.57
2018-06-03T18:56:24.741Z,17.55
2018-06-03T18:58:52.603Z,17.52
2018-06-03T19:01:20.838Z,17.45
2018-06-03T19:03:48.854Z,17.36
2018-06-03T19:06:17.317Z,17.37
2018-06-03T19:08:45.155Z,17.23
2018-06-03T19:11:12.989Z,17.17
2018-06-03T19:13:40.997Z,17.01
2018-06-03T19:16:08.895Z,16.97
2018-06-03T19:18:36.798Z,16.99
2018-06-03T19:21:04.780Z,16.85
2018-06-03T19:23:32.884Z,16.88
2018-06-03T19:26:00.709Z,16.86
2018-06-03T19:28:30.288Z,16.87
2018-06-03T19:30:58.152Z,16.83
2018-06-03T19:33:26.367Z,16.74
2018-06-03T19:35:54.205Z,16.66
2018-06-03T19:38:22.027Z,16.64
2018-06-03T19:40:49.910Z,16.62
2018-06-03T19:43:17.920Z,16.66
2018-06-03T19:45:45.776Z,16.46
2018-06-03T19:48:13.657Z,16.40
2018-06-03T19:50:41.586Z,16.29
2018-06-03T19:53:09.402Z,16.22
2018-06-03T19:55:37.231Z,16.11
2018-06-03T19:58:05.231Z,16.11
2018-06-03T20:00:33.048Z,16.19
2018-06-03T20:03:00.892Z,16.13
2018-06-03T20:05:28.861Z,16.19
2018-06-03T20:07:56.676Z,16.11
2018-06-03T20:10:24.619Z,15.91
2018-06-03T20:12:52.547Z,15.84
2018-06-03T20:15:20.499Z,15.72
2018-06-03T20:17:52.808Z,15.74
2018-06-03T20:20:20.804Z,15.77
2018-06-03T20:22:48.663Z,15.71
2018-06-03T20:25:21.914Z,15.63
2018-06-03T20:27:49.769Z,15.56
2018-06-03T20:30:17.608Z,15.67
2018-06-03T20:32:45.597Z,15.71
2018-06-03T20:35:13.451Z,15.63
2018-06-03T20:37:42.041Z,15.67
2018-06-03T20:40:09.934Z,15.58
2018-06-03T20:42:37.822Z,15.56
2018-06-03T20:45:05.608Z,15.53
2018-06-03T20:47:33.704Z,15.09
2018-06-03T20:50:01.504Z,14.73
2018-06-03T20:52:29.307Z,14.72
2018-06-03T20:54:57.215Z,14.44
2018-06-03T20:57:25.047Z,14.62
2018-06-03T20:59:52.869Z,14.28
2018-06-03T21:02:20.768Z,14.04
2018-06-03T21:04:48.645Z,14.07
2018-06-03T21:07:16.539Z,14.35
2018-06-03T21:09:44.388Z,14.54
2018-06-03T21:12:12.220Z,14.52
2018-06-03T21:14:40.035Z,14.54
2018-06-03T21:17:07.932Z,14.59
2018-06-03T21:19:35.739Z,14.64
2018-06-03T21:22:03.551Z,14.70
2018-06-03T21:25:55.862Z,14.78
2018-06-03T21:28:23.822Z,14.76
2018-06-03T21:31:07.164Z,14.69
2018-06-03T21:33:34.971Z,14.62
2018-06-03T21:36:02.777Z,14.24
2018-06-03T21:38:30.802Z,14.13
2018-06-03T21:41:01.950Z,13.88
2018-06-03T21:43:29.770Z,13.88
2018-06-03T21:45:57.639Z,14.02
2018-06-03T21:48:25.451Z,14.24
2018-06-03T21:50:53.308Z,14.25
2018-06-03T21:53:21.158Z,14.25
2018-06-03T21:55:48.954Z,14.28
2018-06-03T21:58:16.755Z,14.37
2018-06-03T22:00:44.675Z,14.40
2018-06-03T22:03:12.456Z,14.41
2018-06-03T22:05:40.260Z,14.36
2018-06-03T22:08:08.281Z,14.22
2018-06-03T22:10:36.095Z,14.42
2018-06-03T22:13:03.917Z,14.40
2018-06-03T22:15:31.757Z,14.36
2018-06-03T22:17:59.586Z,13.81
2018-06-03T22:20:27.408Z,13.87
2018-06-03T22:22:55.548Z,13.95
2018-06-03T22:25:23.476Z,13.80
2018-06-03T22:27:51.287Z,13.62
2018-06-03T22:30:19.283Z,13.39
2018-06-03T22:32:47.179Z,12.94
2018-06-03T22:35:14.993Z,12.99
2018-06-03T22:37:42.931Z,12.79
2018-06-03T22:40:10.775Z,12.66
2018-06-03T22:42:38.726Z,12.87
2018-06-03T22:45:06.898Z,13.17
2018-06-03T22:47:34.678Z,12.89
2018-06-03T22:50:02.558Z,12.96
2018-06-03T22:52:30.443Z,13.11
2018-06-03T22:54:58.245Z,13.16
2018-06-03T22:57:45.013Z,13.30
2018-06-03T23:00:22.619Z,13.37
2018-06-03T23:02:56.363Z,13.26
2018-06-03T23:05:24.270Z,13.08
2018-06-03T23:07:52.397Z,13.25
2018-06-03T23:10:20.879Z,13.30
2018-06-03T23:12:48.730Z,13.39
2018-06-03T23:15:16.603Z,13.34
2018-06-03T23:17:44.621Z,13.42
2018-06-03T23:20:12.478Z,13.46
2018-06-03T23:22:40.315Z,13.41
2018-06-03T23:25:08.309Z,13.44
2018-06-03T23:27:36.150Z,13.47
2018-06-03T23:30:04.194Z,13.36
2018-06-03T23:32:32.164Z,13.36
2018-06-03T23:34:59.970Z,13.47
2018-06-03T23:37:27.800Z,13.36
2018-06-03T23:39:55.815Z,12.70
2018-06-03T23:42:23.667Z,12.59
2018-06-03T23:44:51.640Z,12.48
2018-06-03T23:47:19.554Z,12.59
2018-06-03T23:49:47.673Z,12.44
2018-06-03T23:52:15.524Z,12.43
2018-06-03T23:54:43.540Z,12.58
2018-06-03T23:57:11.508Z,12.61
2018-06-03T23:59:39.314Z,12.56
